tititudorancea.com
Station Historical Data
Daily Summary for April 2, 2018 Units:  Metric    English   Both
« Previous Day
Next Day »
Daily Weekly Monthly Yearly Custom
  High: Low: Average:
Temperature: -17.8 °C 10.8 °C 14.7 °C
Dew Point: -17.8 °C 8.2 °C 9.8 °C
Humidity: Humidity % 49 % 74 %
Wind Speed: 0 km/h 0 km/h 8.7 km/h
Wind Gust: 0 km/h - -
Wind:- - SW
Pressure: 0 hPa 1013.1 hPa -
Precipitation: 0 mm    
Historical Graphs
 
 
Ararat weather Find more about Weather in Ararat, AU


 



 


Tabular Data for April 2, 2018
Time Temperature Dew Point Pressure Wind Wind Speed Wind Gust Humidity Rainfall Rate (Hourly)
-17.8 °C -17.8 °C 0 hPa Calm     Humidity % 0 mm
00:00 13.5 °C 10.1 °C 1013.8 hPa SSW 1.4 km/h 3.7 km/h 80 % 0 mm
00:05 13.4 °C 10 °C 1013.8 hPa North 2.3 km/h 3.7 km/h 80 % 0 mm
00:10 13.3 °C 9.9 °C 1013.8 hPa SSW 1.6 km/h 3.7 km/h 80 % 0 mm
00:15 13.1 °C 9.9 °C 1013.8 hPa SSW 0.3 km/h 3.7 km/h 81 % 0 mm
00:20 13 °C 9.8 °C 1013.8 hPa Calm     81 % 0 mm
00:25 12.9 °C 9.7 °C 1013.8 hPa Calm   1.9 km/h 81 % 0 mm
00:30 12.8 °C 9.8 °C 1013.8 hPa Calm   1.6 km/h 82 % 0 mm
00:35 12.7 °C 9.9 °C 1013.8 hPa SSW 2.3 km/h 3.7 km/h 83 % 0 mm
00:40 12.8 °C 10.2 °C 1013.8 hPa SSW 4.5 km/h 5.6 km/h 84 % 0 mm
00:45 13.1 °C 10.6 °C 1013.8 hPa SSW 3.4 km/h 5.6 km/h 85 % 0 mm
00:50 13.3 °C 10.8 °C 1014.1 hPa SSW 3.4 km/h 5.6 km/h 85 % 0 mm
00:55 13.4 °C 10.9 °C 1014.1 hPa North 3.5 km/h 5.6 km/h 85 % 0 mm
01:00 13.6 °C 10.9 °C 1014.1 hPa SSW 3.1 km/h 5.6 km/h 84 % 0 mm
01:05 13.6 °C 10.9 °C 1014.1 hPa SSW 0.5 km/h 3.7 km/h 84 % 0 mm
01:11 13.7 °C 11.2 °C 1014.1 hPa SSW 4.8 km/h 6.4 km/h 85 % 0 mm
01:16 14 °C 11.5 °C 1014.1 hPa SSW 8.4 km/h 13 km/h 85 % 0 mm
01:21 14.2 °C 11.7 °C 1014.1 hPa SSW 5.8 km/h 8 km/h 85 % 0 mm
01:26 14.3 °C 12 °C 1014.1 hPa SSW 8.7 km/h 13 km/h 86 % 0 mm
01:31 14.4 °C 12.1 °C 1014.1 hPa South 5.5 km/h 9.3 km/h 86 % 0 mm
01:36 14.5 °C 12.2 °C 1014.1 hPa North 8.5 km/h 11.3 km/h 86 % 0 mm
01:41 14.6 °C 12.3 °C 1013.8 hPa North 4 km/h 9.3 km/h 86 % 0 mm
01:46 14.7 °C 12.3 °C 1013.8 hPa SSW 7.9 km/h 11.1 km/h 86 % 0 mm
01:51 14.7 °C 12.4 °C 1013.8 hPa North 6 km/h 9.3 km/h 86 % 0 mm
01:56 14.7 °C 12.4 °C 1013.8 hPa SSW 6.4 km/h 9.3 km/h 86 % 0 mm
02:05 14.7 °C 12.6 °C 1013.8 hPa North 10.6 km/h 11.1 km/h 87 % 0 mm
02:10 14.7 °C 12.6 °C 1013.8 hPa SSW 6.3 km/h 8 km/h 87 % 0 mm
02:15 14.7 °C 12.6 °C 1013.8 hPa North 5.5 km/h 7.4 km/h 87 % 0 mm
02:20 14.8 °C 12.6 °C 1013.8 hPa SSW 7.1 km/h 9.3 km/h 87 % 0 mm
02:25 14.8 °C 12.7 °C 1013.8 hPa North 4.8 km/h 6.4 km/h 87 % 0 mm
02:30 14.9 °C 12.7 °C 1013.8 hPa SSW 6.3 km/h 9.3 km/h 87 % 0 mm
02:35 14.9 °C 12.7 °C 1013.4 hPa SSW 4 km/h 5.6 km/h 87 % 0 mm
02:40 14.8 °C 12.7 °C 1013.4 hPa North 3.2 km/h 5.6 km/h 87 % 0 mm
02:45 14.7 °C 12.6 °C 1013.4 hPa North 4 km/h 5.6 km/h 87 % 0 mm
02:50 14.6 °C 12.4 °C 1013.4 hPa SSW 1.1 km/h 3.7 km/h 87 % 0 mm
02:55 14.5 °C 12.3 °C 1013.4 hPa Calm     87 % 0 mm
03:00 14.3 °C 12.2 °C 1013.1 hPa SSW 2.3 km/h 5.6 km/h 87 % 0 mm
03:05 14.2 °C 12.1 °C 1013.1 hPa North 0.5 km/h   87 % 0 mm
03:10 14.1 °C 12 °C 1013.1 hPa Calm     87 % 0 mm
03:15 14 °C 12.1 °C 1013.4 hPa North 1.6 km/h 5.6 km/h 88 % 0 mm
03:20 14 °C 12.2 °C 1013.4 hPa North 6.3 km/h 9.3 km/h 89 % 0 mm
03:25 14.2 °C 12.6 °C 1013.4 hPa SSW 8 km/h 14.8 km/h 90 % 0 mm
03:30 14.3 °C 12.7 °C 1013.4 hPa North 11.7 km/h 18.5 km/h 90 % 0 mm
03:35 14.4 °C 12.8 °C 1013.4 hPa SSW 8.9 km/h 9.3 km/h 90 % 0 mm
03:40 14.4 °C 12.8 °C 1013.4 hPa North 6.6 km/h 9.7 km/h 90 % 0 mm
03:45 14.5 °C 12.9 °C 1013.4 hPa North 11.4 km/h 18.5 km/h 90 % 0 mm
03:50 14.5 °C 12.9 °C 1013.4 hPa North 6.3 km/h 11.1 km/h 90 % 0 mm
03:55 14.5 °C 12.9 °C 1013.4 hPa North 8.5 km/h 11.3 km/h 90 % 0 mm
04:00 14.5 °C 12.9 °C 1013.8 hPa North 10.9 km/h 18.5 km/h 90 % 0 mm
04:05 14.4 °C 12.8 °C 1013.8 hPa North 8.9 km/h 14.8 km/h 90 % 0 mm
04:10 14.4 °C 12.9 °C 1013.8 hPa North 8.5 km/h 13 km/h 91 % 0 mm
04:15 14.2 °C 12.8 °C 1013.8 hPa North 13 km/h 17.7 km/h 91 % 0 mm
04:20 14.2 °C 12.9 °C 1013.8 hPa North 8.5 km/h 13 km/h 92 % 0 mm
04:25 14.1 °C 12.8 °C 1013.8 hPa North 15.1 km/h 25.9 km/h 92 % 0 mm
04:30 14 °C 12.7 °C 1013.8 hPa North 7.9 km/h 9.3 km/h 92 % 0 mm
04:35 13.9 °C 12.7 °C 1014.1 hPa SW 13.8 km/h 18.5 km/h 92 % 0 mm
04:40 13.9 °C 12.6 °C 1014.1 hPa SSW 12.9 km/h 18.5 km/h 92 % 0 mm
04:45 13.9 °C 12.6 °C 1014.4 hPa North 14.6 km/h 17.7 km/h 92 % 0 mm
04:50 13.8 °C 12.7 °C 1014.4 hPa North 11.7 km/h 18.5 km/h 93 % 0 mm
04:55 13.6 °C 12.3 °C 1014.4 hPa SW 9.3 km/h 20.4 km/h 92 % 0 mm
05:00 13.3 °C 12 °C 1014.4 hPa North 16.6 km/h 22.2 km/h 92 % 0 mm
05:05 13.1 °C 11.8 °C 1014.4 hPa North 21.7 km/h 22.5 km/h 92 % 0 mm
05:10 12.9 °C 11.8 °C 1014.8 hPa SW 12.7 km/h 18.5 km/h 93 % 0 mm
05:15 12.5 °C 11.2 °C 1015.1 hPa North 12.9 km/h 18.5 km/h 92 % 0 mm
05:20 12.3 °C 11.2 °C 1015.1 hPa North 10.6 km/h 25.9 km/h 93 % 0 mm
05:25 12.3 °C 11.2 °C 1015.1 hPa North 13.4 km/h 20.4 km/h 93 % 0 mm
05:30 12.2 °C 11.1 °C 1015.1 hPa SW 14.2 km/h 20.9 km/h 93 % 0 mm
05:35 12 °C 10.7 °C 1015.1 hPa North 14.3 km/h 24.1 km/h 92 % 0 mm
05:40 11.9 °C 10.7 °C 1015.1 hPa SSW 10.3 km/h 16.7 km/h 92 % 0 mm
05:45 11.9 °C 10.7 °C 1015.1 hPa SSW 10.6 km/h 16.7 km/h 92 % 0 mm
05:50 12 °C 10.7 °C 1015.5 hPa SSW 11.4 km/h 16.1 km/h 92 % 0 mm
05:55 12.1 °C 10.6 °C 1015.5 hPa SW 10.1 km/h 18.5 km/h 91 % 0 mm
06:00 12.2 °C 10.7 °C 1015.5 hPa South 12.2 km/h 18.5 km/h 91 % 0 mm
06:05 12.2 °C 10.6 °C 1015.5 hPa SW 8.7 km/h 16.7 km/h 90 % 0 mm
06:10 12.2 °C 10.6 °C 1015.5 hPa North 12.2 km/h 14.8 km/h 90 % 0 mm
06:15 12.3 °C 10.7 °C 1015.5 hPa South 4 km/h 8 km/h 90 % 0 mm
06:20 12.2 °C 10.4 °C 1015.5 hPa South 6.9 km/h 7.4 km/h 89 % 0 mm
06:25 12.2 °C 10.4 °C 1015.8 hPa North 7.9 km/h 11.1 km/h 89 % 0 mm
06:30 12.2 °C 10.4 °C 1015.5 hPa South 10 km/h 14.8 km/h 89 % 0 mm
06:35 12.1 °C 10.1 °C 1015.5 hPa South 8.7 km/h 18.5 km/h 88 % 0 mm
06:40 12 °C 9.9 °C 1015.8 hPa North 11.1 km/h 18.5 km/h 87 % 0 mm
06:45 12 °C 9.7 °C 1015.8 hPa North 9.2 km/h 14.8 km/h 86 % 0 mm
06:51 12.1 °C 9.8 °C 1015.8 hPa South 6.3 km/h 9.3 km/h 86 % 0 mm
06:56 12.1 °C 9.8 °C 1016.1 hPa South 3.9 km/h 7.4 km/h 86 % 0 mm
07:01 12.2 °C 9.9 °C 1016.1 hPa North 3.1 km/h 5.6 km/h 86 % 0 mm
07:06 12.2 °C 9.9 °C 1016.1 hPa North 4.5 km/h 6.4 km/h 86 % 0 mm
07:11 12.1 °C 9.8 °C 1016.1 hPa South 6.4 km/h 9.7 km/h 86 % 0 mm
07:16 11.9 °C 9.7 °C 1016.5 hPa South 4.7 km/h 7.4 km/h 86 % 0 mm
07:21 11.9 °C 9.6 °C 1016.8 hPa South 4.8 km/h 7.4 km/h 86 % 0 mm
07:26 12 °C 9.7 °C 1016.8 hPa South 3.4 km/h 5.6 km/h 86 % 0 mm
07:31 12.1 °C 9.8 °C 1016.8 hPa South 7.9 km/h 11.1 km/h 86 % 0 mm
07:36 12 °C 9.6 °C 1016.8 hPa South 7.7 km/h 11.1 km/h 85 % 0 mm
07:41 12 °C 9.6 °C 1016.8 hPa South 7.7 km/h 11.1 km/h 85 % 0 mm
07:46 12.1 °C 9.4 °C 1017.2 hPa South 7.1 km/h 13 km/h 84 % 0 mm
07:51 12.2 °C 9.6 °C 1017.2 hPa South 3.7 km/h 6.4 km/h 84 % 0 mm
07:56 12.4 °C 9.8 °C 1017.2 hPa South 8.9 km/h 13 km/h 84 % 0 mm
08:01 12.5 °C 9.7 °C 1017.2 hPa South 7.7 km/h 11.1 km/h 83 % 0 mm
08:06 12.6 °C 9.4 °C 1017.5 hPa SSW 12.4 km/h 18.5 km/h 81 % 0 mm
08:11 12.6 °C 9.2 °C 1017.5 hPa SSW 9.3 km/h 18.5 km/h 80 % 0 mm
08:16 12.6 °C 9.2 °C 1017.5 hPa South 10.9 km/h 16.7 km/h 80 % 0 mm
08:21 12.7 °C 9.1 °C 1017.8 hPa SSW 11.7 km/h 16.7 km/h 79 % 0 mm
08:26 12.9 °C 8.9 °C 1017.8 hPa SSW 18.3 km/h 27.8 km/h 77 % 0 mm
08:31 13.1 °C 9.1 °C 1017.8 hPa SSW 12.2 km/h 18.5 km/h 77 % 0 mm
08:36 12.9 °C 8.8 °C 1017.8 hPa SSW 18.8 km/h 22.5 km/h 76 % 0 mm
08:41 12.9 °C 8.8 °C 1017.8 hPa South 13 km/h 18.5 km/h 76 % 0 mm
08:46 12.9 °C 8.8 °C 1017.8 hPa SSW 11.6 km/h 25.9 km/h 76 % 0 mm
08:51 13 °C 8.9 °C 1018.2 hPa South 6.3 km/h 11.1 km/h 76 % 0 mm
08:56 13.1 °C 8.7 °C 1018.2 hPa SSW 13.4 km/h 18.5 km/h 75 % 0 mm
09:01 13.1 °C 8.8 °C 1018.2 hPa SSW 15 km/h 27.8 km/h 75 % 0 mm
09:06 13.3 °C 8.9 °C 1018.2 hPa South 13 km/h 18.5 km/h 75 % 0 mm
09:11 13.3 °C 8.8 °C 1018.2 hPa South 11.4 km/h 18.5 km/h 74 % 0 mm
09:16 13.4 °C 8.8 °C 1018.2 hPa SSW 10.6 km/h 14.8 km/h 74 % 0 mm
09:21 13.4 °C 8.9 °C 1018.2 hPa South 11.9 km/h 16.7 km/h 74 % 0 mm
09:26 13.5 °C 8.9 °C 1018.2 hPa South 7.9 km/h 11.3 km/h 74 % 0 mm
09:31 13.6 °C 8.8 °C 1018.2 hPa SSW 11.7 km/h 18.5 km/h 73 % 0 mm
09:36 13.7 °C 8.9 °C 1018.2 hPa SW 9.7 km/h 14.8 km/h 73 % 0 mm
09:41 13.8 °C 9 °C 1018.2 hPa SSW 11.9 km/h 18.5 km/h 73 % 0 mm
09:46 13.8 °C 9.1 °C 1018.2 hPa SSW 15.6 km/h 18.5 km/h 73 % 0 mm
09:51 13.8 °C 8.8 °C 1018.2 hPa SSW 14.5 km/h 18.5 km/h 72 % 0 mm
09:56 13.9 °C 8.7 °C 1018.2 hPa SSW 9.8 km/h 13 km/h 71 % 0 mm
10:01 14.1 °C 8.9 °C 1018.2 hPa South 11.7 km/h 18.5 km/h 71 % 0 mm
10:06 14.3 °C 8.9 °C 1018.2 hPa South 14.8 km/h 31.5 km/h 70 % 0 mm
10:11 14.3 °C 8.9 °C 1018.5 hPa South 11.6 km/h 24.1 km/h 70 % 0 mm
10:16 14.5 °C 9.1 °C 1018.5 hPa SSW 16.1 km/h 24.1 km/h 70 % 0 mm
10:21 14.6 °C 8.8 °C 1018.5 hPa SSW 13.8 km/h 24.1 km/h 68 % 0 mm
10:26 14.6 °C 8.9 °C 1018.5 hPa SSW 14.3 km/h 22.2 km/h 69 % 0 mm
10:31 14.7 °C 9.1 °C 1018.5 hPa SSW 11.9 km/h 16.7 km/h 69 % 0 mm
10:36 14.9 °C 9.1 °C 1018.5 hPa North 12.1 km/h 18.5 km/h 68 % 0 mm
10:41 14.8 °C 8.9 °C 1018.5 hPa SSW 11.7 km/h 16.7 km/h 68 % 0 mm
10:46 15.1 °C 9 °C 1018.5 hPa SSW 17.5 km/h 24.1 km/h 67 % 0 mm
10:51 15.2 °C 8.9 °C 1018.5 hPa SSW 11.9 km/h 20.4 km/h 66 % 0 mm
10:56 15.5 °C 8.5 °C 1018.5 hPa SSW 11.7 km/h 18.5 km/h 63 % 0 mm
11:01 15.8 °C 9.1 °C 1018.5 hPa SSW 11.7 km/h 20.4 km/h 64 % 0 mm
11:06 16 °C 8.7 °C 1018.5 hPa SW 11.6 km/h 18.5 km/h 62 % 0 mm
11:11 16.3 °C 8.8 °C 1018.5 hPa SW 16.1 km/h 24.1 km/h 61 % 0 mm
11:16 16.4 °C 8.8 °C 1018.5 hPa SSW 8 km/h 9.3 km/h 61 % 0 mm
11:21 16.8 °C 8.9 °C 1018.5 hPa SSW 20.1 km/h 24.1 km/h 60 % 0 mm
11:26 16.7 °C 8.9 °C 1018.5 hPa South 9.5 km/h 14.8 km/h 60 % 0 mm
11:31 16.7 °C 8.6 °C 1018.5 hPa South 10.6 km/h 18.5 km/h 59 % 0 mm
11:36 16.7 °C 8.7 °C 1018.5 hPa South 14.5 km/h 18.5 km/h 59 % 0 mm
11:41 16.9 °C 8.9 °C 1018.5 hPa South 11.4 km/h 14.8 km/h 59 % 0 mm
11:46 17.1 °C 8.5 °C 1018.5 hPa SW 16.4 km/h 20.4 km/h 57 % 0 mm
11:51 17.2 °C 8.8 °C 1018.2 hPa South 12.6 km/h 16.7 km/h 58 % 0 mm
11:56 17.3 °C 8.4 °C 1018.5 hPa South 14.6 km/h 18.5 km/h 56 % 0 mm
12:01 17.6 °C 8.4 °C 1018.2 hPa SSW 13 km/h 25.9 km/h 55 % 0 mm
12:06 17.7 °C 8.8 °C 1018.2 hPa South 14 km/h 20.4 km/h 56 % 0 mm
12:11 17.4 °C 8.6 °C 1017.8 hPa SW 14.2 km/h 22.2 km/h 56 % 0 mm
12:16 17.4 °C 8.5 °C 1017.8 hPa SSW 27 km/h 31.5 km/h 56 % 0 mm
12:21 17.2 °C 8.6 °C 1018.2 hPa SW 15.1 km/h 20.4 km/h 57 % 0 mm
12:26 17.3 °C 8.7 °C 1017.8 hPa SSW 11.4 km/h 16.1 km/h 57 % 0 mm
12:31 17.6 °C 8.7 °C 1017.8 hPa South 16.9 km/h 24.1 km/h 56 % 0 mm
12:36 17.9 °C 8.8 °C 1017.8 hPa SSW 13.8 km/h 18.5 km/h 55 % 0 mm
12:41 18.1 °C 8.7 °C 1017.8 hPa SW 11.4 km/h 13 km/h 54 % 0 mm
12:46 18 °C 8.6 °C 1018.2 hPa SSW 14.2 km/h 18.5 km/h 54 % 0 mm
12:51 17.8 °C 8.6 °C 1018.2 hPa SSW 13.5 km/h 18.5 km/h 55 % 0 mm
12:56 17.7 °C 8.3 °C 1018.2 hPa SSW 12.4 km/h 22.2 km/h 54 % 0 mm
13:01 18.1 °C 8.6 °C 1018.2 hPa SSW 17.2 km/h 27.8 km/h 54 % 0 mm
13:06 17.7 °C 8.3 °C 1017.8 hPa SSW 14.3 km/h 22.2 km/h 54 % 0 mm
13:11 17.9 °C 8.8 °C 1017.8 hPa SSW 9.2 km/h 14.8 km/h 55 % 0 mm
13:16 18.4 °C 8.9 °C 1017.8 hPa SSW 10.8 km/h 18.5 km/h 54 % 0 mm
13:21 18.6 °C 8.8 °C 1017.8 hPa South 14.8 km/h 16.7 km/h 53 % 0 mm
13:26 18.4 °C 8.4 °C 1017.8 hPa SSW 13 km/h 25.9 km/h 52 % 0 mm
13:31 18.7 °C 8.9 °C 1017.8 hPa South 14 km/h 20.4 km/h 53 % 0 mm
13:36 18.9 °C 8.6 °C 1017.8 hPa SW 14.5 km/h 25.9 km/h 51 % 0 mm
13:41 18.2 °C 8.5 °C 1017.8 hPa SSW 14.2 km/h 22.2 km/h 53 % 0 mm
13:46 18.2 °C 8.8 °C 1017.8 hPa SW 12.7 km/h 18.5 km/h 54 % 0 mm
13:51 18.2 °C 8.8 °C 1017.8 hPa SW 15.3 km/h 20.4 km/h 54 % 0 mm
13:56 18.5 °C 8.7 °C 1017.8 hPa SW 20.4 km/h 25.7 km/h 53 % 0 mm
14:01 18.4 °C 8.4 °C 1017.8 hPa SW 16.1 km/h 25.9 km/h 52 % 0 mm
14:06 18.3 °C 8.8 °C 1017.8 hPa South 9 km/h 18.5 km/h 54 % 0 mm
14:11 18.5 °C 8.7 °C 1017.8 hPa South 15 km/h 22.2 km/h 53 % 0 mm
14:16 18.6 °C 8.5 °C 1017.8 hPa North 18.8 km/h 24.1 km/h 52 % 0 mm
14:21 18.5 °C 8.7 °C 1017.8 hPa SW 13.7 km/h 18.5 km/h 53 % 0 mm
14:26 18.8 °C 8.7 °C 1017.8 hPa SW 9.5 km/h 14.8 km/h 52 % 0 mm
14:31 18.8 °C 8.4 °C 1017.8 hPa SSW 19.3 km/h 27.8 km/h 51 % 0 mm
14:36 18.3 °C 8.3 °C 1017.8 hPa South 12.4 km/h 18.5 km/h 52 % 0 mm
14:41 18.2 °C 8.5 °C 1017.8 hPa SSW 15.1 km/h 20.9 km/h 53 % 0 mm
14:46 18.2 °C 8.5 °C 1017.8 hPa SSW 14.8 km/h 27.8 km/h 53 % 0 mm
14:51 18.4 °C 8.6 °C 1017.5 hPa SW 15.8 km/h 25.9 km/h 53 % 0 mm
14:56 18.8 °C 9 °C 1017.5 hPa SSW 14.6 km/h 32.2 km/h 53 % 0 mm
15:01 19.2 °C 8.8 °C 1017.5 hPa SSW 14.2 km/h 20.4 km/h 51 % 0 mm
15:06 19.2 °C 8.8 °C 1017.5 hPa South 13.4 km/h 14.8 km/h 51 % 0 mm
15:11 19.2 °C 8.8 °C 1017.5 hPa SSW 11.7 km/h 13 km/h 51 % 0 mm
15:17 19.2 °C 8.8 °C 1017.5 hPa SSW 9.7 km/h 18.5 km/h 51 % 0 mm
15:22 19.1 °C 8.4 °C 1017.5 hPa North 15 km/h 25.9 km/h 50 % 0 mm
15:27 19.1 °C 9 °C 1017.5 hPa SSW 8.4 km/h 12.9 km/h 52 % 0 mm
15:32 19.3 °C 8.9 °C 1017.5 hPa South 13.7 km/h 18.5 km/h 51 % 0 mm
15:37 19.6 °C 8.9 °C 1017.5 hPa SW 16.7 km/h 24.1 km/h 50 % 0 mm
15:42 19.2 °C 8.2 °C 1017.8 hPa SSW 14.8 km/h 24.1 km/h 49 % 0 mm
15:47 18.8 °C 8.4 °C 1017.8 hPa SSW 14.6 km/h 24.1 km/h 51 % 0 mm
15:52 18.6 °C 8.8 °C 1017.8 hPa SSW 14.8 km/h 20.4 km/h 53 % 0 mm
15:57 18.6 °C 8.8 °C 1017.8 hPa SSW 15.3 km/h 20.4 km/h 53 % 0 mm
16:02 18.3 °C 8.6 °C 1017.8 hPa North 16.9 km/h 20.4 km/h 53 % 0 mm
16:07 18.4 °C 8.9 °C 1017.5 hPa SW 9 km/h 14.5 km/h 54 % 0 mm
16:12 18.8 °C 9 °C 1017.5 hPa SSW 10.6 km/h 18.5 km/h 53 % 0 mm
16:17 19.1 °C 8.9 °C 1017.5 hPa SSW 13.7 km/h 16.7 km/h 52 % 0 mm
16:22 19.2 °C 9.1 °C 1017.8 hPa South 8.5 km/h 13 km/h 52 % 0 mm
16:27 19.4 °C 9 °C 1017.8 hPa SSW 14.2 km/h 18.5 km/h 51 % 0 mm
16:32 19.4 °C 8.7 °C 1017.8 hPa South 16.1 km/h 22.2 km/h 50 % 0 mm
16:37 19.5 °C 9.1 °C 1017.8 hPa South 11.4 km/h 16.1 km/h 51 % 0 mm
16:42 19.5 °C 9.1 °C 1017.8 hPa North 9.8 km/h 14.5 km/h 51 % 0 mm
16:47 19.7 °C 8.9 °C 1017.8 hPa South 6.1 km/h 11.3 km/h 50 % 0 mm
16:52 19.7 °C 8.9 °C 1017.8 hPa SW 12.9 km/h 18.5 km/h 50 % 0 mm
16:57 19.6 °C 8.9 °C 1017.8 hPa SW 14.3 km/h 18.5 km/h 50 % 0 mm
17:02 19.4 °C 8.7 °C 1017.8 hPa SSW 10.9 km/h 18.5 km/h 50 % 0 mm
17:07 19.3 °C 8.9 °C 1017.8 hPa North 13.5 km/h 18.5 km/h 51 % 0 mm
17:12 18.9 °C 8.9 °C 1017.8 hPa SW 10.1 km/h 17.7 km/h 52 % 0 mm
17:17 18.7 °C 8.9 °C 1018.2 hPa SW 5 km/h 9.3 km/h 53 % 0 mm
17:22 18.5 °C 8.7 °C 1018.2 hPa South 11.1 km/h 18.5 km/h 53 % 0 mm
17:27 18.4 °C 8.6 °C 1018.2 hPa North 12.9 km/h 20.4 km/h 53 % 0 mm
17:32 18.3 °C 8.6 °C 1018.2 hPa SW 13.4 km/h 20.4 km/h 53 % 0 mm
17:37 18.3 °C 8.6 °C 1018.2 hPa SSW 9.5 km/h 13 km/h 53 % 0 mm
17:42 18.3 °C 8.8 °C 1018.2 hPa SSW 12.2 km/h 14.8 km/h 54 % 0 mm
17:47 18.2 °C 8.7 °C 1018.5 hPa SW 9.8 km/h 18.5 km/h 54 % 0 mm
17:52 18.1 °C 8.7 °C 1018.5 hPa SSW 6.6 km/h 8 km/h 54 % 0 mm
17:57 18 °C 8.8 °C 1018.5 hPa SSW 10.1 km/h 14.8 km/h 55 % 0 mm
18:02 17.9 °C 8.7 °C 1018.5 hPa SSW 10.9 km/h 16.7 km/h 55 % 0 mm
18:07 17.7 °C 8.5 °C 1018.5 hPa SSW 7.2 km/h 14.8 km/h 55 % 0 mm
18:12 17.5 °C 8.6 °C 1018.5 hPa SSW 10.9 km/h 16.7 km/h 56 % 0 mm
18:17 17.4 °C 8.5 °C 1018.8 hPa SSW 11.9 km/h 18.5 km/h 56 % 0 mm
18:22 17.3 °C 8.4 °C 1018.8 hPa SSW 7.1 km/h 14.8 km/h 56 % 0 mm
18:27 17.3 °C 8.7 °C 1018.8 hPa SSW 6.8 km/h 11.3 km/h 57 % 0 mm
18:32 17.3 °C 8.7 °C 1019.2 hPa North 7.7 km/h 17.7 km/h 57 % 0 mm
18:37 17.2 °C 9.9 °C 1019.2 hPa South 16.1 km/h 24.1 km/h 62 % 0 mm
18:42 16.9 °C 10.8 °C 1019.5 hPa SSW 14.8 km/h 20.4 km/h 67 % 0 mm
18:47 16.6 °C 11.1 °C 1019.5 hPa South 14.8 km/h 29.6 km/h 70 % 0 mm
18:52 16.3 °C 11.1 °C 1019.5 hPa North 8 km/h 16.7 km/h 71 % 0 mm
18:57 16.1 °C 11.1 °C 1019.9 hPa SSW 14.6 km/h 18.5 km/h 72 % 0 mm
19:02 15.9 °C 11.1 °C 1019.9 hPa SSE 11.1 km/h 18.5 km/h 73 % 0 mm
19:07 15.7 °C 11.1 °C 1019.9 hPa SSW 6 km/h 9.3 km/h 74 % 0 mm
19:12 15.5 °C 11.1 °C 1019.9 hPa SSW 3.5 km/h 9.3 km/h 75 % 0 mm
19:17 15.3 °C 10.9 °C 1019.9 hPa SSW 4 km/h 9.7 km/h 75 % 0 mm
19:22 15.2 °C 11 °C 1019.9 hPa SSW 5 km/h 9.3 km/h 76 % 0 mm
19:27 15.1 °C 10.8 °C 1019.9 hPa North 3.9 km/h 5.6 km/h 76 % 0 mm
19:32 14.9 °C 10.9 °C 1020.2 hPa SSW 3.7 km/h 5.6 km/h 77 % 0 mm
19:37 14.7 °C 10.9 °C 1020.2 hPa SSW 3.7 km/h 7.4 km/h 78 % 0 mm
19:42 14.6 °C 10.8 °C 1020.2 hPa SSW 2.9 km/h 4.8 km/h 78 % 0 mm
19:47 14.4 °C 10.8 °C 1020.2 hPa North 4.2 km/h 5.6 km/h 79 % 0 mm
19:52 14.3 °C 10.7 °C 1020.5 hPa SSW 2.9 km/h 5.6 km/h 79 % 0 mm
19:57 14.1 °C 10.7 °C 1020.5 hPa SSW 4.5 km/h 5.6 km/h 80 % 0 mm
20:02 13.9 °C 10.6 °C 1020.5 hPa SSW 5.8 km/h 5.8 km/h 80 % 0 mm
20:07 13.8 °C 10.6 °C 1020.5 hPa SSW 4.7 km/h 6.4 km/h 81 % 0 mm
20:12 13.7 °C 10.4 °C 1020.5 hPa SSW 4.2 km/h 6.4 km/h 81 % 0 mm
20:17 13.6 °C 10.6 °C 1020.5 hPa SSW 4.2 km/h 5.6 km/h 82 % 0 mm
20:22 13.5 °C 10.5 °C 1020.5 hPa North 1.3 km/h 3.7 km/h 82 % 0 mm
20:27 13.4 °C 10.4 °C 1020.5 hPa SSW 3.5 km/h 3.7 km/h 82 % 0 mm
20:32 13.3 °C 10.5 °C 1020.5 hPa SSW 3.1 km/h 5.6 km/h 83 % 0 mm
20:37 13.2 °C 10.4 °C 1020.5 hPa North 3.4 km/h 5.6 km/h 83 % 0 mm
20:42 13.1 °C 10.3 °C 1020.9 hPa SSW 3.1 km/h 5.6 km/h 83 % 0 mm
20:47 12.9 °C 10.3 °C 1020.9 hPa SSW 3.5 km/h 5.6 km/h 84 % 0 mm
20:52 12.8 °C 10.2 °C 1020.9 hPa North 2.6 km/h 5.6 km/h 84 % 0 mm
20:57 12.8 °C 10.2 °C 1020.9 hPa SSW 1.9 km/h 5.6 km/h 84 % 0 mm
21:02 12.7 °C 10.3 °C 1020.9 hPa SSW 1.4 km/h 3.2 km/h 85 % 0 mm
21:07 12.7 °C 10.2 °C 1020.9 hPa SSW 1.8 km/h 3.7 km/h 85 % 0 mm
21:12 12.6 °C 10.2 °C 1020.9 hPa SSW 3.4 km/h 5.6 km/h 85 % 0 mm
21:17 12.6 °C 10.1 °C 1021.2 hPa North 3.7 km/h 5.6 km/h 85 % 0 mm
21:22 12.6 °C 10.3 °C 1021.2 hPa SSW 2.1 km/h 3.7 km/h 86 % 0 mm
21:27 12.6 °C 10.1 °C 1021.2 hPa SSW 0.3 km/h 1.9 km/h 85 % 0 mm
21:32 12.4 °C 10 °C 1021.2 hPa Calm     85 % 0 mm
21:37 12.3 °C 9.9 °C 1021.2 hPa Calm   1.9 km/h 85 % 0 mm
21:42 12.2 °C 9.8 °C 1021.2 hPa SSW 1.3 km/h 3.7 km/h 85 % 0 mm
21:47 12.1 °C 9.8 °C 1021.2 hPa Calm     86 % 0 mm
21:52 11.9 °C 9.7 °C 1021.2 hPa Calm     86 % 0 mm
21:57 11.8 °C 9.3 °C 1021.2 hPa SSW 1.6 km/h 3.7 km/h 85 % 0 mm
22:02 11.6 °C 9.3 °C 1021.2 hPa SSW 2.7 km/h 3.7 km/h 86 % 0 mm
22:07 11.4 °C 9.2 °C 1021.2 hPa SSW 0.3 km/h 1.9 km/h 86 % 0 mm
22:12 11.4 °C 9.3 °C 1021.2 hPa SSW 0.5 km/h   87 % 0 mm
22:17 11.3 °C 9.2 °C 1021.2 hPa SSW 0.3 km/h 1.9 km/h 87 % 0 mm
22:22 11.2 °C 9.1 °C 1021.2 hPa SSW 0.2 km/h   87 % 0 mm
22:27 11.1 °C 9.2 °C 1021.6 hPa Calm     88 % 0 mm
22:32 11.1 °C 9.2 °C 1021.6 hPa Calm     88 % 0 mm
22:37 11 °C 9.1 °C 1021.6 hPa Calm     88 % 0 mm
22:42 11 °C 9.1 °C 1021.6 hPa Calm     88 % 0 mm
22:47 10.9 °C 9.2 °C 1021.6 hPa Calm     89 % 0 mm
22:52 10.9 °C 9.2 °C 1021.6 hPa Calm     89 % 0 mm
22:57 10.9 °C 9.2 °C 1021.6 hPa Calm     89 % 0 mm
23:02 10.8 °C 9.1 °C 1021.6 hPa Calm     89 % 0 mm
23:07 10.9 °C 9.3 °C 1021.6 hPa Calm     90 % 0 mm
23:12 10.9 °C 9.3 °C 1021.6 hPa Calm     90 % 0 mm
23:17 11 °C 9.4 °C 1021.6 hPa Calm     90 % 0 mm
23:22 11.2 °C 9.8 °C 1021.9 hPa Calm     91 % 0 mm
23:27 11.3 °C 9.9 °C 1021.9 hPa Calm     91 % 0 mm
23:32 11.4 °C 10 °C 1021.9 hPa SSW 0.5 km/h 1.9 km/h 91 % 0 mm
23:37 11.6 °C 10.2 °C 1021.9 hPa SSW 2.3 km/h 3.7 km/h 91 % 0 mm
23:42 11.7 °C 10.3 °C 1021.9 hPa SSW 0.6 km/h 3.7 km/h 91 % 0 mm
23:47 11.8 °C 10.4 °C 1021.9 hPa SSW 0.6 km/h 3.7 km/h 91 % 0 mm
23:52 11.9 °C 10.4 °C 1021.9 hPa North 1 km/h 3.7 km/h 91 % 0 mm
23:58 11.9 °C 10.3 °C 1021.6 hPa SSW 0.2 km/h   90 % 0 mm
Ararat Weather
Compliments of Weather Underground - 2.25 mb
Click here to send mail.


ABOUT

Live weather data from Ararat, Victoria, Australia, 3377
Data uploaded from Cumulus every 5 minutes to Weather Underground.
This site then downloads the raw data for formatting and display.
Metric and imperial data can be displayed. Graphs and historical data available.
Includes Sun and Moon times and rain image live from BOM.

Check out Ararat Weather on Facebook, Twitter and Google +

Help support ongoing costs by checking out the ads





Follow @AraratWeather